Time;durP1;ratioP1;P1;durP2;ratioP2;P2;SDS_P1;SDS_P2;PMS_P1;PMS_P2;Temp;Humidity;BMP_temperature;BMP_pressure;BME280_temperature;BME280_humidity;BME280_pressure;Samples;Min_cycle;Max_cycle;Signal;HPM_P1;HPM_P2
2021/12/28 00:02:03;;;;;;;2.50;1.53;;;8.20;99.90;;;;;;5103679;28;20277;-43
2021/12/28 00:04:29;;;;;;;2.97;2.10;;;8.20;99.90;;;;;;5121159;28;20172;-43
2021/12/28 00:06:55;;;;;;;4.03;1.47;;;8.20;99.90;;;;;;5121563;28;20508;-42
2021/12/28 00:09:20;;;;;;;3.10;1.20;;;8.10;99.90;;;;;;5121188;28;20455;-42
2021/12/28 00:11:46;;;;;;;2.23;1.10;;;8.10;99.90;;;;;;5103149;28;20185;-43
2021/12/28 00:14:12;;;;;;;5.10;1.83;;;8.10;99.90;;;;;;5121256;28;20175;-43
2021/12/28 00:19:22;;;;;;;3.33;1.43;;;8.00;99.90;;;;;;5121043;28;20524;-43
2021/12/28 00:21:47;;;;;;;5.40;1.70;;;8.00;99.90;;;;;;5120495;28;20570;-44
2021/12/28 00:24:14;;;;;;;4.00;1.70;;;8.10;99.90;;;;;;5101938;28;20457;-44
2021/12/28 00:26:40;;;;;;;7.23;1.93;;;8.00;99.90;;;;;;5119879;28;20184;-43
2021/12/28 00:29:05;;;;;;;5.47;1.77;;;8.00;99.90;;;;;;5103082;28;20406;-44
2021/12/28 00:31:31;;;;;;;4.77;1.77;;;8.00;99.90;;;;;;5120708;28;20213;-43
2021/12/28 00:33:58;;;;;;;2.80;1.50;;;8.00;99.90;;;;;;5102801;28;20267;-43
2021/12/28 00:36:24;;;;;;;5.43;1.97;;;7.90;99.90;;;;;;5120846;28;20730;-42
2021/12/28 00:38:50;;;;;;;4.33;1.87;;;7.90;99.90;;;;;;5120797;28;20428;-43
2021/12/28 00:41:16;;;;;;;4.60;2.03;;;7.90;99.90;;;;;;5120955;28;20471;-43
2021/12/28 00:43:42;;;;;;;8.13;1.80;;;7.90;99.90;;;;;;5119992;28;20435;-44
2021/12/28 00:46:09;;;;;;;6.80;1.77;;;7.90;99.90;;;;;;5118057;28;20237;-42
2021/12/28 00:48:35;;;;;;;7.47;1.40;;;7.90;99.90;;;;;;5120653;28;20519;-44
2021/12/28 00:51:02;;;;;;;5.27;1.50;;;7.90;99.90;;;;;;5121146;28;20465;-44
2021/12/28 00:53:28;;;;;;;9.30;2.30;;;7.90;99.90;;;;;;5120766;28;20420;-44
2021/12/28 00:55:57;;;;;;;7.90;2.23;;;7.90;99.90;;;;;;5120128;28;20505;-44
2021/12/28 00:58:22;;;;;;;7.97;2.03;;;7.90;99.90;;;;;;5118067;28;20196;-44
2021/12/28 01:00:49;;;;;;;7.50;1.97;;;7.90;99.90;;;;;;5118983;28;20463;-44
2021/12/28 01:03:15;;;;;;;5.97;1.90;;;7.90;99.90;;;;;;5118687;28;20422;-44
2021/12/28 01:05:41;;;;;;;7.57;1.90;;;8.00;99.90;;;;;;5118919;28;20424;-44
2021/12/28 01:08:09;;;;;;;9.10;2.57;;;8.00;99.90;;;;;;5118489;28;20827;-44
2021/12/28 01:10:39;;;;;;;8.13;2.07;;;8.00;99.90;;;;;;5100989;28;20428;-44
2021/12/28 01:13:05;;;;;;;10.60;2.10;;;8.00;99.90;;;;;;5119366;28;20428;-44
2021/12/28 01:15:31;;;;;;;6.00;2.43;;;8.00;99.90;;;;;;5120400;28;20410;-43
2021/12/28 01:17:57;;;;;;;6.03;2.13;;;8.00;99.90;;;;;;5119834;28;20548;-44
2021/12/28 01:20:23;;;;;;;9.20;1.80;;;7.90;99.90;;;;;;5119767;28;20476;-44
2021/12/28 01:22:49;;;;;;;8.17;1.97;;;7.90;99.90;;;;;;5119312;28;20183;-44
2021/12/28 01:25:16;;;;;;;10.33;2.33;;;7.90;99.90;;;;;;5119226;28;20827;-44
2021/12/28 01:27:44;;;;;;;7.07;2.07;;;7.90;99.90;;;;;;5119873;28;20241;-44
2021/12/28 01:30:12;;;;;;;10.73;1.90;;;7.90;99.90;;;;;;5119591;28;20473;-44
2021/12/28 01:32:37;;;;;;;5.67;1.97;;;7.90;99.90;;;;;;5102113;28;20417;-43
2021/12/28 01:35:08;;;;;;;8.53;2.20;;;7.90;99.90;;;;;;5101906;28;20414;-44
2021/12/28 01:37:34;;;;;;;8.63;2.90;;;7.90;99.90;;;;;;5119884;28;20290;-42
2021/12/28 01:40:00;;;;;;;8.43;2.40;;;7.90;99.90;;;;;;5119952;28;20522;-44
2021/12/28 01:42:28;;;;;;;7.00;2.20;;;7.90;99.90;;;;;;5119014;28;20185;-44
2021/12/28 01:44:54;;;;;;;5.17;1.70;;;7.90;99.90;;;;;;5118872;28;20422;-44
2021/12/28 01:47:19;;;;;;;6.90;2.60;;;7.90;99.90;;;;;;5119568;28;20894;-44
2021/12/28 01:49:45;;;;;;;9.50;2.20;;;7.90;99.90;;;;;;5119253;28;20183;-43
2021/12/28 01:52:12;;;;;;;11.90;3.10;;;7.90;99.90;;;;;;5119685;28;20259;-44
2021/12/28 01:54:37;;;;;;;8.63;2.23;;;7.90;99.90;;;;;;5119468;28;20187;-44
2021/12/28 01:57:03;;;;;;;5.70;1.73;;;7.90;99.90;;;;;;5118898;28;20397;-43
2021/12/28 01:59:29;;;;;;;5.60;2.07;;;7.90;99.90;;;;;;5119229;28;20420;-44
2021/12/28 02:01:56;;;;;;;7.67;2.10;;;7.90;99.90;;;;;;5118939;28;20553;-44
2021/12/28 02:04:27;;;;;;;6.30;2.37;;;7.90;99.90;;;;;;5118854;28;20251;-42
2021/12/28 02:06:55;;;;;;;8.83;2.33;;;7.90;99.90;;;;;;5119429;28;20487;-43
2021/12/28 02:09:20;;;;;;;6.87;2.40;;;7.90;99.90;;;;;;5118856;28;20421;-48
2021/12/28 02:11:46;;;;;;;9.37;2.30;;;7.90;99.90;;;;;;5118762;28;20401;-44
2021/12/28 02:14:12;;;;;;;5.93;2.40;;;7.90;99.90;;;;;;5119065;28;20425;-44
2021/12/28 02:16:40;;;;;;;10.10;2.47;;;7.90;99.90;;;;;;5118938;28;20420;-44
2021/12/28 02:19:40;;;;;;;7.23;2.80;;;7.90;99.90;;;;;;5118946;28;20424;-44
2021/12/28 02:22:08;;;;;;;7.60;2.40;;;7.90;99.90;;;;;;5100459;28;20457;-43
2021/12/28 02:24:34;;;;;;;7.27;2.13;;;7.90;99.90;;;;;;5118722;28;20512;-44
2021/12/28 02:26:59;;;;;;;4.93;1.73;;;7.80;99.90;;;;;;5100834;28;20887;-44
2021/12/28 02:29:28;;;;;;;6.10;1.93;;;7.80;99.90;;;;;;5118932;28;20177;-44
2021/12/28 02:31:55;;;;;;;8.33;3.00;;;7.80;99.90;;;;;;5118985;28;20593;-44
2021/12/28 02:34:28;;;;;;;10.50;2.40;;;7.80;99.90;;;;;;5118524;28;20828;-44
2021/12/28 02:36:56;;;;;;;7.23;1.87;;;7.80;99.90;;;;;;5117853;28;20410;-44
2021/12/28 02:39:21;;;;;;;8.93;3.83;;;7.80;99.90;;;;;;5118434;28;20429;-43
2021/12/28 02:41:47;;;;;;;8.57;2.20;;;7.80;99.90;;;;;;5118498;28;20513;-43
2021/12/28 02:44:15;;;;;;;6.00;2.00;;;7.80;99.90;;;;;;5117099;28;20633;-44
2021/12/28 02:46:41;;;;;;;6.77;1.97;;;7.80;99.90;;;;;;5118475;28;20227;-42
2021/12/28 02:49:06;;;;;;;7.47;2.37;;;7.80;99.90;;;;;;5118732;28;20448;-44
2021/12/28 02:51:33;;;;;;;8.10;2.20;;;7.80;99.90;;;;;;5118155;28;20190;-44
2021/12/28 02:53:59;;;;;;;6.50;1.90;;;7.80;99.90;;;;;;5118495;28;20267;-44
2021/12/28 02:56:24;;;;;;;6.60;1.83;;;7.80;99.90;;;;;;5117858;28;20797;-43
2021/12/28 02:58:52;;;;;;;5.90;2.23;;;7.80;99.90;;;;;;5116791;28;20276;-44
2021/12/28 03:01:23;;;;;;;6.73;2.10;;;7.80;99.90;;;;;;5116267;28;20264;-43
2021/12/28 03:03:55;;;;;;;8.63;2.83;;;7.80;99.90;;;;;;5116220;28;20820;-44
2021/12/28 03:06:23;;;;;;;10.63;2.40;;;7.70;99.90;;;;;;5116527;28;20406;-44
2021/12/28 03:08:54;;;;;;;4.60;2.03;;;7.70;99.90;;;;;;5114764;28;20451;-44
2021/12/28 03:11:21;;;;;;;6.93;2.30;;;7.70;99.90;;;;;;5115750;28;20414;-44
2021/12/28 03:13:50;;;;;;;9.50;2.27;;;7.70;99.90;;;;;;5116786;28;20498;-44
2021/12/28 03:16:19;;;;;;;5.43;2.03;;;7.70;99.90;;;;;;5116794;28;20422;-44
2021/12/28 03:18:45;;;;;;;12.10;2.63;;;7.70;99.90;;;;;;5117418;28;20850;-44
2021/12/28 03:21:13;;;;;;;6.17;1.77;;;7.70;99.90;;;;;;5118217;28;20505;-43
2021/12/28 03:23:39;;;;;;;7.00;2.20;;;7.70;99.90;;;;;;5118033;28;20433;-44
2021/12/28 03:26:06;;;;;;;10.57;2.47;;;7.70;99.90;;;;;;5117214;28;20718;-44
2021/12/28 03:28:34;;;;;;;5.77;2.27;;;7.70;99.90;;;;;;5117801;28;20439;-44
2021/12/28 03:31:01;;;;;;;7.33;1.80;;;7.80;99.90;;;;;;5117905;28;20509;-44
2021/12/28 03:33:29;;;;;;;7.57;2.10;;;7.70;99.90;;;;;;5117818;28;20437;-44
2021/12/28 03:35:55;;;;;;;7.00;1.93;;;7.70;99.90;;;;;;5100104;28;20406;-44
2021/12/28 03:38:22;;;;;;;5.50;1.80;;;7.80;99.90;;;;;;5117453;28;20871;-44
2021/12/28 03:40:48;;;;;;;5.10;2.30;;;7.80;99.90;;;;;;5117755;28;20556;-44
2021/12/28 03:43:14;;;;;;;8.00;2.27;;;7.80;99.90;;;;;;5117652;28;20428;-44
2021/12/28 03:45:40;;;;;;;5.50;2.03;;;7.80;99.90;;;;;;5117787;28;20415;-44
2021/12/28 03:48:05;;;;;;;4.90;2.43;;;7.80;99.90;;;;;;5117701;28;20465;-44
2021/12/28 03:50:35;;;;;;;8.40;1.90;;;7.80;99.90;;;;;;5099771;28;20190;-44
2021/12/28 03:53:00;;;;;;;6.30;2.40;;;7.80;99.90;;;;;;5117881;28;20538;-44
2021/12/28 03:55:26;;;;;;;9.53;2.27;;;7.90;99.90;;;;;;5099547;28;20432;-44
2021/12/28 03:57:53;;;;;;;8.17;1.80;;;7.80;99.80;;;;;;5117583;28;20190;-43
2021/12/28 04:00:21;;;;;;;4.70;1.90;;;7.90;99.70;;;;;;5117631;28;20265;-44
2021/12/28 04:02:46;;;;;;;5.57;1.80;;;7.90;99.60;;;;;;5117538;28;20530;-44
2021/12/28 04:05:13;;;;;;;4.50;1.97;;;7.90;99.60;;;;;;5117587;28;20402;-44
2021/12/28 04:07:41;;;;;;;3.80;1.77;;;7.90;99.60;;;;;;5099171;28;20423;-44
2021/12/28 04:10:09;;;;;;;4.43;1.60;;;7.90;99.50;;;;;;5117828;28;20406;-43
2021/12/28 04:12:36;;;;;;;6.13;1.83;;;8.00;99.50;;;;;;5117887;28;20413;-44
2021/12/28 04:15:05;;;;;;;4.60;1.57;;;8.00;99.50;;;;;;5118014;28;20499;-43
2021/12/28 04:17:33;;;;;;;9.13;2.33;;;8.00;99.50;;;;;;5099610;28;20903;-43
2021/12/28 04:19:59;;;;;;;5.57;1.50;;;8.00;99.40;;;;;;5119671;28;20432;-42
2021/12/28 04:22:24;;;;;;;4.90;1.77;;;8.10;99.30;;;;;;5120913;28;20461;-43
2021/12/28 04:24:50;;;;;;;7.80;2.37;;;8.10;99.20;;;;;;5119920;28;20183;-41
2021/12/28 04:27:16;;;;;;;6.37;1.47;;;8.10;99.20;;;;;;5119978;28;20274;-44
2021/12/28 04:29:41;;;;;;;6.40;1.30;;;8.10;99.20;;;;;;5118705;28;20176;-44
2021/12/28 04:32:07;;;;;;;2.83;1.30;;;8.10;99.10;;;;;;5118739;28;20243;-43
2021/12/28 04:34:33;;;;;;;7.50;1.93;;;8.10;99.10;;;;;;5118776;28;20184;-44
2021/12/28 04:37:01;;;;;;;5.90;1.63;;;8.20;99.10;;;;;;5118372;28;20486;-44
2021/12/28 04:39:27;;;;;;;7.63;1.50;;;8.20;99.00;;;;;;5100258;28;20184;-44
2021/12/28 04:41:52;;;;;;;2.97;1.03;;;8.20;99.00;;;;;;5118344;28;20518;-44
2021/12/28 04:44:24;;;;;;;4.20;1.70;;;8.20;98.90;;;;;;5118021;28;20191;-44
2021/12/28 04:46:50;;;;;;;3.80;1.90;;;8.30;99.00;;;;;;5119349;28;20587;-44
2021/12/28 04:49:17;;;;;;;4.93;1.40;;;8.20;99.00;;;;;;5119330;28;20473;-44
2021/12/28 04:51:43;;;;;;;4.57;1.30;;;8.30;99.00;;;;;;5118468;28;20424;-44
2021/12/28 04:54:12;;;;;;;3.33;1.30;;;8.30;98.90;;;;;;5119177;28;20820;-44
2021/12/28 04:56:39;;;;;;;3.83;1.63;;;8.30;98.90;;;;;;5119558;28;20479;-44
2021/12/28 04:59:04;;;;;;;2.43;1.27;;;8.30;98.90;;;;;;5120235;28;20461;-43
2021/12/28 05:01:30;;;;;;;3.00;0.90;;;8.30;99.00;;;;;;5119295;28;20515;-44
2021/12/28 05:03:56;;;;;;;2.57;0.93;;;8.30;98.90;;;;;;5120242;28;20180;-48
2021/12/28 05:06:25;;;;;;;4.33;1.40;;;8.40;98.90;;;;;;5119673;28;20475;-48
2021/12/28 05:08:50;;;;;;;2.67;1.20;;;8.40;99.00;;;;;;5118792;28;20642;-47
2021/12/28 05:11:16;;;;;;;3.03;1.57;;;8.40;99.00;;;;;;5118665;28;20437;-48
2021/12/28 05:13:42;;;;;;;2.87;1.20;;;8.40;98.90;;;;;;5118729;28;20480;-48
2021/12/28 05:16:13;;;;;;;3.20;1.40;;;8.40;98.90;;;;;;5119040;28;20184;-48
2021/12/28 05:18:41;;;;;;;2.83;1.23;;;8.50;98.90;;;;;;5118871;28;20184;-48
2021/12/28 05:21:07;;;;;;;2.87;1.60;;;8.50;98.90;;;;;;5118849;28;20456;-48
2021/12/28 05:23:32;;;;;;;4.30;1.33;;;8.50;98.90;;;;;;5119573;28;20884;-48
2021/12/28 05:25:58;;;;;;;2.97;1.60;;;8.50;98.80;;;;;;5119763;28;20169;-48
2021/12/28 05:28:25;;;;;;;1.90;1.23;;;8.50;98.80;;;;;;5119317;28;20245;-48
2021/12/28 05:30:51;;;;;;;3.73;1.63;;;8.60;98.80;;;;;;5119285;28;20186;-48
2021/12/28 05:33:17;;;;;;;2.57;1.23;;;8.50;98.80;;;;;;5119689;28;20853;-48
2021/12/28 05:35:42;;;;;;;2.63;1.00;;;8.50;98.70;;;;;;5119601;28;20722;-48
2021/12/28 05:38:08;;;;;;;2.10;1.07;;;8.50;98.80;;;;;;5119462;28;20247;-48
2021/12/28 05:40:34;;;;;;;4.40;1.90;;;8.50;98.80;;;;;;5119326;28;20203;-48
2021/12/28 05:43:02;;;;;;;5.67;1.40;;;8.50;98.90;;;;;;5119028;28;20181;-48
2021/12/28 05:45:30;;;;;;;2.67;1.03;;;8.50;98.80;;;;;;5119540;28;20250;-48
2021/12/28 05:47:56;;;;;;;4.50;1.33;;;8.50;98.80;;;;;;5119303;28;20460;-47
2021/12/28 05:50:22;;;;;;;2.90;1.30;;;8.50;98.90;;;;;;5119315;28;20455;-48
2021/12/28 05:52:47;;;;;;;3.50;1.57;;;8.50;98.90;;;;;;5118430;28;20553;-48
2021/12/28 05:55:13;;;;;;;5.87;1.97;;;8.50;98.80;;;;;;5116724;28;20182;-48
2021/12/28 05:57:39;;;;;;;5.47;1.80;;;8.50;98.90;;;;;;5118040;28;20214;-48
2021/12/28 06:00:10;;;;;;;4.67;1.70;;;8.50;99.00;;;;;;5116928;28;20861;-47
2021/12/28 06:02:36;;;;;;;3.33;1.77;;;8.40;99.00;;;;;;5117222;28;20173;-48
2021/12/28 06:05:02;;;;;;;6.00;2.00;;;8.40;99.10;;;;;;5116710;28;20440;-48
2021/12/28 06:07:28;;;;;;;4.33;1.37;;;8.40;99.10;;;;;;5117927;28;20746;-47
2021/12/28 06:09:57;;;;;;;2.73;1.20;;;8.50;99.20;;;;;;5116925;28;20402;-48
2021/12/28 06:12:24;;;;;;;2.97;1.00;;;8.50;99.10;;;;;;5117568;28;20179;-47
2021/12/28 06:14:51;;;;;;;2.67;1.20;;;8.50;99.20;;;;;;5118739;28;20795;-47
2021/12/28 06:17:19;;;;;;;2.00;1.30;;;8.50;99.20;;;;;;5117447;28;20505;-47
2021/12/28 06:19:45;;;;;;;1.90;1.30;;;8.50;99.60;;;;;;5116688;28;20410;-48
2021/12/28 06:22:11;;;;;;;2.90;1.63;;;8.50;99.30;;;;;;5116766;28;20790;-48
2021/12/28 06:24:36;;;;;;;2.53;1.53;;;8.60;99.50;;;;;;5116424;28;20204;-47
2021/12/28 06:27:02;;;;;;;2.47;1.50;;;8.50;99.60;;;;;;5116964;28;20257;-47
2021/12/28 06:29:28;;;;;;;2.60;1.30;;;8.50;99.70;;;;;;5116559;28;20183;-48
2021/12/28 06:31:53;;;;;;;4.97;2.70;;;8.50;99.70;;;;;;5116824;28;20464;-47
2021/12/28 06:34:19;;;;;;;1.93;1.60;;;8.50;99.80;;;;;;5118552;28;20653;-47
2021/12/28 06:36:44;;;;;;;1.80;1.20;;;8.50;99.80;;;;;;5118061;28;20180;-48
2021/12/28 06:39:11;;;;;;;1.60;1.30;;;8.50;99.80;;;;;;5117564;28;20240;-47
2021/12/28 06:41:38;;;;;;;2.27;1.53;;;8.50;99.80;;;;;;5117104;28;20211;-47
2021/12/28 06:44:07;;;;;;;1.30;1.00;;;8.50;99.90;;;;;;5117260;28;20501;-47
2021/12/28 06:46:33;;;;;;;1.50;1.10;;;8.50;99.90;;;;;;5117511;28;20611;-47
2021/12/28 06:48:58;;;;;;;5.80;1.30;;;8.50;99.90;;;;;;5097856;28;20510;-47
2021/12/28 06:51:24;;;;;;;1.60;1.13;;;8.50;99.90;;;;;;5115646;28;20184;-47
2021/12/28 06:53:50;;;;;;;2.00;1.50;;;8.50;99.90;;;;;;5116162;28;20178;-47
2021/12/28 06:56:15;;;;;;;1.70;1.30;;;8.50;99.90;;;;;;5116322;28;20192;-47
2021/12/28 06:58:42;;;;;;;1.83;1.00;;;8.40;99.90;;;;;;5115595;28;20207;-48
2021/12/28 07:01:08;;;;;;;2.03;1.20;;;8.50;99.90;;;;;;5115416;28;20208;-47
2021/12/28 07:03:33;;;;;;;3.50;1.30;;;8.50;99.90;;;;;;5116087;28;20415;-48
2021/12/28 07:05:59;;;;;;;1.20;1.10;;;8.40;99.90;;;;;;5116723;28;20489;-47
2021/12/28 07:08:26;;;;;;;1.60;0.87;;;8.40;99.90;;;;;;5116040;28;20239;-47
2021/12/28 07:10:51;;;;;;;1.00;0.70;;;8.50;99.90;;;;;;5097898;28;20497;-47
2021/12/28 07:13:17;;;;;;;2.00;0.60;;;8.50;99.90;;;;;;5116371;28;20823;-47
2021/12/28 07:15:46;;;;;;;2.33;1.10;;;9.20;99.90;;;;;;5116859;28;20182;-46
2021/12/28 07:18:11;;;;;;;1.93;1.00;;;9.70;99.90;;;;;;5116078;28;20210;-46
2021/12/28 07:20:37;;;;;;;3.60;0.80;;;10.30;99.90;;;;;;5116634;28;20515;-47
2021/12/28 07:23:03;;;;;;;1.30;0.70;;;10.80;99.90;;;;;;5116229;28;20183;-46
2021/12/28 07:25:29;;;;;;;6.83;1.60;;;11.10;99.90;;;;;;5114186;28;20398;-46
2021/12/28 07:27:55;;;;;;;3.93;1.37;;;11.40;99.90;;;;;;5114830;28;20452;-46
2021/12/28 07:30:21;;;;;;;3.57;1.00;;;11.80;99.90;;;;;;5115946;28;20234;-46
2021/12/28 07:32:46;;;;;;;1.97;0.93;;;12.10;99.90;;;;;;5115742;28;20433;-46
2021/12/28 07:35:12;;;;;;;4.60;1.10;;;12.40;99.90;;;;;;5096768;28;20234;-47
2021/12/28 07:37:39;;;;;;;1.07;0.70;;;12.70;99.20;;;;;;5096585;28;20209;-48
2021/12/28 07:40:07;;;;;;;2.20;0.90;;;12.70;97.30;;;;;;5116368;28;20180;-47
2021/12/28 07:42:35;;;;;;;1.20;0.83;;;12.40;94.80;;;;;;5116983;28;20491;-48
2021/12/28 07:45:09;;;;;;;1.80;1.10;;;12.00;94.00;;;;;;5100466;28;20420;-46
2021/12/28 07:47:35;;;;;;;1.33;0.80;;;11.80;94.20;;;;;;5117376;28;20469;-41
2021/12/28 07:50:06;;;;;;;1.77;0.90;;;11.60;93.80;;;;;;5118007;28;20406;-40
2021/12/28 07:52:31;;;;;;;2.03;0.70;;;11.40;93.60;;;;;;5117580;28;20455;-41
2021/12/28 07:54:57;;;;;;;1.10;0.60;;;11.10;93.80;;;;;;5120023;28;20424;-43
2021/12/28 07:57:25;;;;;;;1.90;0.70;;;10.90;94.20;;;;;;5102915;28;20191;-40
2021/12/28 07:59:51;;;;;;;2.13;0.80;;;10.70;94.50;;;;;;5120655;28;20172;-40
2021/12/28 08:02:16;;;;;;;1.93;0.63;;;10.60;94.90;;;;;;5118857;28;20480;-40
2021/12/28 08:04:42;;;;;;;1.30;0.90;;;10.40;95.20;;;;;;5119108;28;20233;-40
2021/12/28 08:07:08;;;;;;;1.73;0.80;;;10.30;95.60;;;;;;5117077;28;20179;-43
2021/12/28 08:09:33;;;;;;;1.13;0.70;;;10.20;95.90;;;;;;5099923;28;20183;-40
2021/12/28 08:11:59;;;;;;;1.50;0.70;;;10.20;96.20;;;;;;5099599;28;20431;-42
2021/12/28 08:14:24;;;;;;;1.20;0.60;;;10.10;96.30;;;;;;5117191;28;20289;-38
2021/12/28 08:16:50;;;;;;;1.07;0.50;;;10.10;96.50;;;;;;5117349;28;20188;-38
2021/12/28 08:19:16;;;;;;;1.47;0.70;;;10.10;96.60;;;;;;5118357;28;20467;-40
2021/12/28 08:21:42;;;;;;;1.10;0.60;;;10.10;96.80;;;;;;5119932;28;20225;-39
2021/12/28 08:24:07;;;;;;;0.90;0.60;;;10.00;96.80;;;;;;5120393;28;20182;-37
2021/12/28 08:26:33;;;;;;;1.00;0.50;;;10.10;96.90;;;;;;5121102;28;20256;-39
2021/12/28 08:28:58;;;;;;;0.90;0.40;;;10.10;97.00;;;;;;5120283;28;20182;-41
2021/12/28 08:31:24;;;;;;;1.03;0.50;;;10.20;97.20;;;;;;5121220;28;20230;-40
2021/12/28 08:33:50;;;;;;;2.07;0.40;;;10.40;96.90;;;;;;5120636;28;20190;-38
2021/12/28 08:36:16;;;;;;;3.13;0.50;;;10.40;96.70;;;;;;5101446;28;20431;-38
2021/12/28 08:38:43;;;;;;;0.80;0.30;;;10.70;96.80;;;;;;5119540;28;20693;-40
2021/12/28 08:41:09;;;;;;;0.70;0.30;;;11.00;96.50;;;;;;5118982;28;20616;-42
2021/12/28 08:43:35;;;;;;;0.80;0.50;;;11.30;96.00;;;;;;5117888;28;20524;-42
2021/12/28 08:46:01;;;;;;;0.70;0.40;;;11.50;95.50;;;;;;5117500;28;20917;-38
2021/12/28 08:48:26;;;;;;;0.77;0.40;;;11.70;95.00;;;;;;5117614;28;20283;-40
2021/12/28 08:50:52;;;;;;;1.47;0.60;;;12.20;94.80;;;;;;5118317;28;20240;-38
2021/12/28 08:53:18;;;;;;;0.77;0.40;;;12.60;93.80;;;;;;5118441;28;20338;-39
2021/12/28 08:55:46;;;;;;;1.33;0.60;;;12.80;92.80;;;;;;5117842;28;20453;-41
2021/12/28 08:58:12;;;;;;;1.10;0.60;;;13.00;92.70;;;;;;5118374;28;20432;-44
2021/12/28 09:00:38;;;;;;;0.90;0.60;;;13.00;92.50;;;;;;5119584;28;20500;-40
2021/12/28 09:03:04;;;;;;;0.90;0.70;;;13.00;92.10;;;;;;5119004;28;20429;-40
2021/12/28 09:05:31;;;;;;;0.90;0.50;;;12.80;92.10;;;;;;5117522;28;20277;-38
2021/12/28 09:07:57;;;;;;;1.07;0.60;;;12.70;92.40;;;;;;5118662;28;20437;-40
2021/12/28 09:10:25;;;;;;;1.27;0.70;;;12.70;92.80;;;;;;5119235;28;20881;-40
2021/12/28 09:12:55;;;;;;;1.27;0.70;;;12.90;92.80;;;;;;5118101;28;20475;-39
2021/12/28 09:15:22;;;;;;;1.03;0.60;;;13.10;92.80;;;;;;5117454;28;20444;-38
2021/12/28 09:17:51;;;;;;;1.00;0.67;;;13.50;92.60;;;;;;5117462;28;20835;-43
2021/12/28 09:20:19;;;;;;;1.80;0.97;;;14.00;92.90;;;;;;5117585;28;20522;-40
2021/12/28 09:22:53;;;;;;;1.07;0.70;;;14.90;92.00;;;;;;5117644;28;20433;-41
2021/12/28 09:25:19;;;;;;;1.17;0.67;;;15.90;90.30;;;;;;5118994;28;20389;-38
2021/12/28 09:27:46;;;;;;;1.10;0.70;;;16.40;86.60;;;;;;5118239;28;20500;-40
2021/12/28 09:30:12;;;;;;;0.90;0.40;;;16.50;85.30;;;;;;5118286;28;20845;-42
2021/12/28 09:32:39;;;;;;;1.10;0.40;;;16.30;84.40;;;;;;5119241;28;20410;-40
2021/12/28 09:35:08;;;;;;;0.70;0.40;;;15.90;84.60;;;;;;5100936;28;20816;-41
2021/12/28 09:37:34;;;;;;;1.30;0.70;;;15.40;84.80;;;;;;5117895;28;20435;-43
2021/12/28 09:40:01;;;;;;;0.77;0.37;;;14.90;86.40;;;;;;5118362;28;20420;-41
2021/12/28 09:42:27;;;;;;;1.60;0.40;;;14.50;88.00;;;;;;5117960;28;20468;-46
2021/12/28 09:44:53;;;;;;;1.23;0.50;;;14.30;89.30;;;;;;5118809;28;20436;-42
2021/12/28 09:47:19;;;;;;;0.90;0.47;;;14.20;90.30;;;;;;5116205;28;20500;-40
2021/12/28 09:49:47;;;;;;;0.80;0.40;;;14.20;90.60;;;;;;5116233;28;20195;-44
2021/12/28 09:52:13;;;;;;;0.80;0.30;;;14.30;90.40;;;;;;5097899;28;20727;-40
2021/12/28 09:54:40;;;;;;;1.10;0.50;;;14.20;90.50;;;;;;5114367;28;20418;-41
2021/12/28 09:57:06;;;;;;;0.87;0.50;;;14.10;90.70;;;;;;5114637;28;20418;-39
2021/12/28 09:59:32;;;;;;;1.13;0.60;;;14.10;91.00;;;;;;5115079;28;20841;-40
2021/12/28 10:01:59;;;;;;;0.80;0.47;;;14.20;91.10;;;;;;5114672;28;20215;-40
2021/12/28 10:04:28;;;;;;;0.93;0.50;;;14.50;91.10;;;;;;5119474;27;20421;-40
2021/12/28 10:07:18;;;;;;;1.20;0.70;;;14.60;90.70;;;;;;5134549;27;20451;-40
2021/12/28 10:09:44;;;;;;;1.60;0.90;;;14.70;90.70;;;;;;5136376;27;20418;-39
2021/12/28 10:12:10;;;;;;;1.20;0.67;;;14.90;90.90;;;;;;5137651;27;20846;-41
2021/12/28 10:14:36;;;;;;;1.23;0.90;;;15.30;90.50;;;;;;5137565;27;20432;-40
2021/12/28 10:17:06;;;;;;;4.10;1.73;;;15.40;90.00;;;;;;5118243;27;20429;-43
2021/12/28 10:19:45;;;;;;;2.90;0.90;;;15.40;90.50;;;;;;5137833;27;20428;-42
2021/12/28 10:22:20;;;;;;;1.00;0.60;;;15.30;90.80;;;;;;5118477;27;20549;-41
2021/12/28 10:24:46;;;;;;;1.63;0.57;;;15.10;90.40;;;;;;5136064;27;20754;-41
2021/12/28 10:27:17;;;;;;;3.80;1.20;;;14.90;90.40;;;;;;5118290;27;20844;-40
2021/12/28 10:29:42;;;;;;;2.33;0.53;;;14.80;92.00;;;;;;5137310;27;20424;-41
2021/12/28 10:32:28;;;;;;;1.07;0.60;;;15.10;92.70;;;;;;5137289;27;20891;-40
2021/12/28 10:34:56;;;;;;;1.37;0.63;;;15.90;91.50;;;;;;5138197;27;20220;-40
2021/12/28 10:37:30;;;;;;;1.10;0.50;;;16.30;90.20;;;;;;5138198;27;20420;-40
2021/12/28 10:39:58;;;;;;;1.33;0.73;;;16.40;88.90;;;;;;5137858;27;20463;-42
2021/12/28 10:42:38;;;;;;;0.93;0.60;;;16.30;88.10;;;;;;5137518;27;20462;-42
2021/12/28 10:45:08;;;;;;;0.90;0.70;;;16.00;88.90;;;;;;5138222;27;20762;-41
2021/12/28 10:47:35;;;;;;;0.80;0.40;;;15.80;89.60;;;;;;5134851;27;20471;-39
2021/12/28 10:50:08;;;;;;;1.53;1.17;;;15.60;90.10;;;;;;5135406;27;20531;-43
2021/12/28 10:52:39;;;;;;;1.00;0.60;;;15.40;90.70;;;;;;5136928;27;20421;-43
2021/12/28 10:55:22;;;;;;;1.00;0.60;;;15.30;90.80;;;;;;5109106;28;20868;-40
2021/12/28 10:57:48;;;;;;;0.80;0.50;;;15.70;91.50;;;;;;5117558;28;20542;-41
2021/12/28 11:00:33;;;;;;;1.77;0.70;;;16.70;91.30;;;;;;5118040;28;20529;-41
2021/12/28 11:03:17;;;;;;;1.43;0.80;;;18.00;90.00;;;;;;5117107;28;20186;-42
2021/12/28 11:05:50;;;;;;;1.00;0.60;;;18.70;85.80;;;;;;5117315;28;20441;-43
2021/12/28 11:08:16;;;;;;;1.90;0.80;;;19.30;83.20;;;;;;5116117;28;20398;-43
2021/12/28 11:11:01;;;;;;;1.10;0.70;;;20.10;80.70;;;;;;5115694;28;20927;-39
2021/12/28 11:13:29;;;;;;;1.10;0.50;;;20.90;78.20;;;;;;5115019;28;20406;-42
2021/12/28 11:15:57;;;;;;;1.63;0.70;;;21.30;74.70;;;;;;5113557;28;20418;-41
2021/12/28 11:18:35;;;;;;;1.60;0.70;;;21.30;73.00;;;;;;5114513;28;20421;-43
2021/12/28 11:21:10;;;;;;;1.50;0.87;;;21.10;71.80;;;;;;5114602;28;20556;-41
2021/12/28 11:23:36;;;;;;;1.00;0.70;;;20.60;71.80;;;;;;5115474;28;20426;-41
2021/12/28 11:26:10;;;;;;;1.37;0.60;;;20.00;73.30;;;;;;5098465;28;20673;-41
2021/12/28 11:28:37;;;;;;;1.10;0.60;;;19.50;74.70;;;;;;5115126;28;20530;-42
2021/12/28 11:31:13;;;;;;;1.23;0.80;;;19.10;76.00;;;;;;5118958;28;20719;-40
2021/12/28 11:33:53;;;;;;;1.27;0.80;;;18.50;77.10;;;;;;5118512;28;20831;-39
2021/12/28 11:36:23;;;;;;;1.70;0.80;;;18.10;79.20;;;;;;5120269;28;20432;-40
2021/12/28 11:38:50;;;;;;;0.97;0.70;;;17.80;80.10;;;;;;5119877;28;20412;-40
2021/12/28 11:41:16;;;;;;;1.23;0.77;;;17.40;81.40;;;;;;5122630;27;20467;-41
2021/12/28 11:43:43;;;;;;;1.40;0.87;;;16.90;82.70;;;;;;5121779;27;20429;-39
2021/12/28 11:46:10;;;;;;;1.17;0.80;;;16.50;84.30;;;;;;5119686;28;20696;-42
2021/12/28 11:48:36;;;;;;;1.53;0.60;;;16.20;86.00;;;;;;5121076;28;20848;-40
2021/12/28 11:51:02;;;;;;;1.80;0.90;;;15.80;87.50;;;;;;5120633;28;20431;-40
2021/12/28 11:53:28;;;;;;;1.10;0.63;;;15.50;89.00;;;;;;5118059;28;20429;-41
2021/12/28 11:55:58;;;;;;;1.57;0.90;;;15.20;90.60;;;;;;5099979;28;20189;-40
2021/12/28 11:58:49;;;;;;;0.90;0.60;;;15.00;91.00;;;;;;5118805;28;20434;-39
2021/12/28 12:01:59;;;;;;;1.20;0.60;;;14.80;91.80;;;;;;5118784;28;20464;-40
2021/12/28 12:04:31;;;;;;;7.30;2.17;;;14.60;92.40;;;;;;5095530;28;20409;-40
2021/12/28 12:07:16;;;;;;;2.90;2.00;;;14.80;97.60;;;;;;5119309;28;20416;-40
2021/12/28 12:09:53;;;;;;;2.57;1.30;;;15.00;98.30;;;;;;5118498;28;20411;-45
2021/12/28 12:12:32;;;;;;;4.60;1.30;;;15.20;98.20;;;;;;5119183;28;20416;-41
2021/12/28 12:14:58;;;;;;;2.60;1.37;;;15.40;98.10;;;;;;5102431;28;20860;-41
2021/12/28 12:17:39;;;;;;;2.10;1.17;;;15.60;97.70;;;;;;5118534;28;20479;-41
2021/12/28 12:20:20;;;;;;;2.17;1.20;;;15.70;96.10;;;;;;5119685;28;20477;-42
2021/12/28 12:23:10;;;;;;;2.43;1.53;;;15.70;95.00;;;;;;5120217;28;20465;-40
2021/12/28 12:25:45;;;;;;;1.90;1.20;;;15.60;94.80;;;;;;5118164;28;20413;-39
2021/12/28 12:28:12;;;;;;;3.00;1.57;;;15.60;94.90;;;;;;5100191;28;20890;-39
2021/12/28 12:30:44;;;;;;;2.97;1.43;;;15.60;95.00;;;;;;5117381;28;20425;-38
2021/12/28 12:33:11;;;;;;;1.27;0.90;;;15.60;94.70;;;;;;5118781;28;20413;-39
2021/12/28 12:35:56;;;;;;;1.80;1.10;;;15.50;93.90;;;;;;5119445;28;20564;-39
2021/12/28 12:38:24;;;;;;;2.13;1.80;;;15.40;93.60;;;;;;5100232;28;20418;-41
2021/12/28 12:41:17;;;;;;;1.30;0.83;;;15.20;93.20;;;;;;5118367;28;20730;-40
2021/12/28 12:43:44;;;;;;;1.27;0.60;;;15.00;93.10;;;;;;5119340;28;20515;-41
2021/12/28 12:46:21;;;;;;;1.03;0.70;;;14.70;93.30;;;;;;5119099;28;20425;-41
2021/12/28 12:48:47;;;;;;;0.90;0.47;;;14.50;93.60;;;;;;5117953;28;20472;-38
2021/12/28 12:51:21;;;;;;;1.10;0.73;;;14.30;93.90;;;;;;5117455;28;20819;-40
2021/12/28 12:53:48;;;;;;;1.00;0.60;;;14.10;94.10;;;;;;5116087;28;20165;-40
2021/12/28 12:56:19;;;;;;;1.00;0.67;;;14.00;94.50;;;;;;5116157;28;20814;-38
2021/12/28 12:58:46;;;;;;;1.47;0.60;;;13.90;94.60;;;;;;5114147;28;20442;-40
2021/12/28 13:01:24;;;;;;;1.00;0.60;;;13.80;94.80;;;;;;5097127;28;20626;-41